Time;durP1;ratioP1;P1;durP2;ratioP2;P2;SDS_P1;SDS_P2;PMS_P1;PMS_P2;Temp;Humidity;BMP_temperature;BMP_pressure;BME280_temperature;BME280_humidity;BME280_pressure;Samples;Min_cycle;Max_cycle;Signal;HPM_P1;HPM_P2
2023/03/15 00:00:11;;;;;;;7.90;2.20;;;;;;;1.26;79.18;100122.02;106517;1259;71743;-70
2023/03/15 00:02:38;;;;;;;9.60;1.80;;;;;;;1.25;79.32;100124.92;106547;1259;61254;-69
2023/03/15 00:05:06;;;;;;;8.70;2.20;;;;;;;1.26;79.34;100123.45;106355;1267;61422;-70
2023/03/15 00:07:32;;;;;;;13.60;2.00;;;;;;;1.27;79.30;100124.30;106796;1260;73826;-69
2023/03/15 00:09:59;;;;;;;10.00;1.80;;;;;;;1.27;79.25;100129.29;107315;1259;69670;-70
2023/03/15 00:12:26;;;;;;;7.00;1.80;;;;;;;1.28;79.47;100130.59;106566;1259;71158;-70
2023/03/15 00:14:53;;;;;;;9.40;2.00;;;;;;;1.28;79.35;100135.84;106672;1259;61244;-70
2023/03/15 00:17:21;;;;;;;8.20;1.90;;;;;;;1.28;79.41;100142.08;106719;1262;60122;-69
2023/03/15 00:19:48;;;;;;;7.40;1.60;;;;;;;1.30;79.16;100143.71;106621;1259;74659;-70
2023/03/15 00:22:16;;;;;;;9.10;2.00;;;;;;;1.31;79.06;100145.73;106514;1259;70234;-70
2023/03/15 00:24:43;;;;;;;5.10;1.50;;;;;;;1.32;78.99;100151.36;106492;1260;71269;-72
2023/03/15 00:27:10;;;;;;;8.90;2.20;;;;;;;1.32;78.69;100151.66;106624;1259;61357;-69
2023/03/15 00:29:37;;;;;;;8.80;1.50;;;;;;;1.35;78.63;100156.80;106865;1261;61235;-68
2023/03/15 00:32:04;;;;;;;7.90;1.50;;;;;;;1.37;78.56;100158.90;106557;1259;74474;-70
2023/03/15 00:34:32;;;;;;;8.70;2.00;;;;;;;1.39;78.69;100157.55;106702;1259;71068;-70
2023/03/15 00:36:59;;;;;;;12.60;3.80;;;;;;;1.40;78.40;100158.13;106440;1261;71561;-69
2023/03/15 00:39:26;;;;;;;15.70;4.30;;;;;;;1.43;77.93;100158.09;106629;1260;61322;-70
2023/03/15 00:41:55;;;;;;;13.40;4.10;;;;;;;1.48;77.70;100163.61;106618;1259;60539;-68
2023/03/15 00:44:23;;;;;;;13.40;5.10;;;;;;;1.50;77.41;100170.23;106215;1260;74540;-70
2023/03/15 00:46:50;;;;;;;14.00;4.90;;;;;;;1.53;77.16;100164.39;106610;1259;70030;-69
2023/03/15 00:49:17;;;;;;;13.30;3.40;;;;;;;1.52;77.54;100173.39;106441;1261;72425;-69
2023/03/15 00:51:44;;;;;;;14.20;5.50;;;;;;;1.49;77.32;100178.67;106713;1265;61155;-69
2023/03/15 00:54:12;;;;;;;13.60;5.40;;;;;;;1.44;77.40;100174.90;106484;1259;61228;-71
2023/03/15 00:56:41;;;;;;;14.40;4.90;;;;;;;1.41;77.44;100184.40;106580;1259;73616;-68
2023/03/15 00:59:08;;;;;;;15.20;5.20;;;;;;;1.40;77.55;100186.04;106408;1259;71488;-69
2023/03/15 01:01:37;;;;;;;15.30;5.40;;;;;;;1.40;77.65;100187.28;106516;1262;71535;-70
2023/03/15 01:04:04;;;;;;;19.40;6.50;;;;;;;1.42;77.33;100194.59;106499;1261;61569;-69
2023/03/15 01:06:31;;;;;;;21.30;8.40;;;;;;;1.46;77.17;100191.11;106711;1259;61247;-72
2023/03/15 01:08:58;;;;;;;12.10;3.60;;;;;;;1.50;76.99;100190.10;106321;1260;73451;-69
2023/03/15 01:11:26;;;;;;;14.10;4.80;;;;;;;1.55;76.93;100190.02;106569;1259;69666;-69
2023/03/15 01:13:56;;;;;;;14.80;5.00;;;;;;;1.58;76.99;100193.92;106620;1260;72855;-69
2023/03/15 01:16:25;;;;;;;16.90;6.70;;;;;;;1.64;76.35;100196.03;106423;1259;61253;-69
2023/03/15 01:18:53;;;;;;;10.60;4.10;;;;;;;1.70;76.54;100198.70;106528;1259;61276;-70
2023/03/15 01:21:21;;;;;;;8.80;3.20;;;;;;;1.72;76.23;100191.54;106512;1262;72508;-70
2023/03/15 01:23:48;;;;;;;11.90;4.00;;;;;;;1.75;76.59;100198.09;106359;1259;70003;-68
2023/03/15 01:26:16;;;;;;;11.60;4.70;;;;;;;1.76;76.37;100195.90;106386;1259;72395;-69
2023/03/15 01:28:43;;;;;;;18.40;6.20;;;;;;;1.77;76.24;100195.11;106448;1259;61979;-69
2023/03/15 01:31:18;;;;;;;13.80;4.00;;;;;;;1.79;76.13;100195.34;106363;1260;61460;-69
2023/03/15 01:33:45;;;;;;;12.00;3.60;;;;;;;1.80;76.04;100197.65;106530;1259;75686;-69
2023/03/15 01:36:15;;;;;;;11.60;4.10;;;;;;;1.81;75.91;100199.81;106401;1259;70035;-70
2023/03/15 01:38:42;;;;;;;12.40;4.50;;;;;;;1.83;75.94;100199.14;106488;1259;73504;-70
2023/03/15 01:41:11;;;;;;;16.50;5.10;;;;;;;1.87;75.73;100200.25;106261;1267;61369;-70
2023/03/15 01:43:38;;;;;;;15.70;5.00;;;;;;;1.88;75.60;100206.23;106915;1262;61254;-69
2023/03/15 01:46:14;;;;;;;13.90;4.10;;;;;;;1.91;75.18;100203.52;106490;1260;74392;-70
2023/03/15 01:48:47;;;;;;;13.60;5.70;;;;;;;1.93;75.13;100203.14;106475;1261;69720;-71
2023/03/15 01:51:27;;;;;;;12.30;4.40;;;;;;;1.97;74.50;100201.39;106767;1260;71831;-70
2023/03/15 01:54:17;;;;;;;13.30;3.90;;;;;;;2.02;74.94;100202.02;106616;1259;61274;-70
2023/03/15 01:56:51;;;;;;;11.40;4.70;;;;;;;2.06;74.32;100204.70;106783;1259;61259;-70
2023/03/15 01:59:28;;;;;;;12.50;3.40;;;;;;;2.08;74.45;100209.29;106969;1261;73118;-69
2023/03/15 02:01:59;;;;;;;8.90;2.80;;;;;;;2.10;74.06;100214.27;106462;1259;70992;-69
2023/03/15 02:04:33;;;;;;;10.00;2.60;;;;;;;2.12;74.39;100215.52;106516;1259;73076;-69
2023/03/15 02:07:02;;;;;;;9.90;3.00;;;;;;;2.14;74.14;100218.86;106360;1260;61259;-70
2023/03/15 02:09:46;;;;;;;10.50;3.20;;;;;;;2.15;74.34;100219.42;106550;1259;61524;-69
2023/03/15 02:12:13;;;;;;;7.70;2.80;;;;;;;2.16;74.04;100216.95;106718;1259;73596;-70
2023/03/15 02:14:41;;;;;;;10.00;2.60;;;;;;;2.17;74.28;100218.05;106546;1259;69622;-69
2023/03/15 02:17:08;;;;;;;6.50;1.70;;;;;;;2.17;74.19;100213.16;106949;1259;71220;-70
2023/03/15 02:20:03;;;;;;;8.90;2.00;;;;;;;2.18;73.39;100220.09;106663;1261;61399;-69
2023/03/15 02:22:48;;;;;;;7.20;1.60;;;;;;;2.21;73.54;100219.11;106470;1259;61241;-69
2023/03/15 02:25:41;;;;;;;6.40;1.40;;;;;;;2.24;73.42;100219.86;106515;1259;73163;-69
2023/03/15 02:28:13;;;;;;;11.00;1.60;;;;;;;2.28;72.95;100221.86;106706;1259;69851;-69
2023/03/15 02:30:42;;;;;;;6.60;1.40;;;;;;;2.33;72.21;100223.80;106594;1259;72122;-69
2023/03/15 02:33:19;;;;;;;8.40;1.50;;;;;;;2.37;72.09;100227.30;107060;1259;61464;-68
2023/03/15 02:35:46;;;;;;;6.60;1.70;;;;;;;2.41;72.20;100228.46;108622;1259;59866;-69
2023/03/15 02:38:13;;;;;;;8.30;1.60;;;;;;;2.47;71.54;100229.92;108528;1259;72521;-69
2023/03/15 02:40:41;;;;;;;6.70;1.40;;;;;;;2.53;71.46;100233.05;106667;1265;69804;-69
2023/03/15 02:43:19;;;;;;;7.90;1.70;;;;;;;2.58;71.70;100236.81;107164;1259;71401;-69
2023/03/15 02:45:46;;;;;;;11.70;1.90;;;;;;;2.61;72.03;100241.44;107213;1260;61255;-70
2023/03/15 02:48:14;;;;;;;9.90;1.60;;;;;;;2.64;72.18;100243.44;106363;1259;61153;-69
2023/03/15 02:50:41;;;;;;;8.90;1.80;;;;;;;2.68;72.68;100246.30;106572;1259;74762;-70
2023/03/15 02:53:08;;;;;;;7.80;1.30;;;;;;;2.69;72.75;100240.77;107263;1259;69957;-69
2023/03/15 02:55:35;;;;;;;8.30;1.70;;;;;;;2.70;72.82;100245.75;106341;1259;73246;-69
2023/03/15 02:58:02;;;;;;;8.20;1.90;;;;;;;2.67;72.33;100244.77;106423;1265;61378;-69
2023/03/15 03:00:29;;;;;;;6.80;1.70;;;;;;;2.66;72.74;100248.02;106261;1262;61324;-70
2023/03/15 03:02:56;;;;;;;9.90;1.80;;;;;;;2.65;72.69;100250.68;106481;1259;74868;-70
2023/03/15 03:05:23;;;;;;;6.90;1.60;;;;;;;2.65;73.02;100256.65;106259;1261;70243;-70
2023/03/15 03:07:50;;;;;;;8.90;1.70;;;;;;;2.64;73.12;100257.09;106422;1259;72518;-69
2023/03/15 03:10:18;;;;;;;6.90;1.80;;;;;;;2.57;73.67;100255.06;106654;1259;61778;-71
2023/03/15 03:12:46;;;;;;;9.00;1.80;;;;;;;2.52;73.83;100266.67;106458;1260;61294;-70
2023/03/15 03:15:12;;;;;;;7.30;1.80;;;;;;;2.47;73.94;100273.75;106485;1259;73152;-69
2023/03/15 03:17:39;;;;;;;9.90;2.20;;;;;;;2.43;74.28;100275.59;106470;1260;72277;-71
2023/03/15 03:20:08;;;;;;;9.40;2.00;;;;;;;2.38;74.82;100281.30;106784;1262;71342;-70
2023/03/15 03:22:36;;;;;;;7.70;2.20;;;;;;;2.34;75.26;100282.02;106543;1262;61368;-70
2023/03/15 03:25:05;;;;;;;6.30;2.00;;;;;;;2.30;75.55;100283.88;106802;1259;61177;-69
2023/03/15 03:27:35;;;;;;;9.00;2.30;;;;;;;2.28;75.82;100281.83;106425;1264;74522;-70
2023/03/15 03:30:11;;;;;;;11.00;2.30;;;;;;;2.23;76.39;100291.63;106505;1265;69882;-68
2023/03/15 03:32:39;;;;;;;6.60;2.00;;;;;;;2.16;76.70;100302.08;106573;1259;71297;-69
2023/03/15 03:35:07;;;;;;;5.10;1.90;;;;;;;2.10;77.41;100313.86;106465;1259;61191;-69
2023/03/15 03:37:34;;;;;;;6.60;2.40;;;;;;;2.07;77.86;100309.30;106427;1259;61763;-71
2023/03/15 03:40:06;;;;;;;6.40;2.40;;;;;;;2.01;78.33;100310.44;106412;1259;73411;-71
2023/03/15 03:42:33;;;;;;;7.50;2.10;;;;;;;1.95;79.02;100314.40;106690;1259;69984;-69
2023/03/15 03:45:01;;;;;;;8.40;2.20;;;;;;;1.91;79.73;100320.39;106784;1261;72718;-70
2023/03/15 03:47:27;;;;;;;6.60;2.20;;;;;;;1.84;80.91;100321.10;106265;1259;61275;-74
2023/03/15 03:49:54;;;;;;;9.00;2.90;;;;;;;1.81;81.61;100326.78;106339;1260;61261;-70
2023/03/15 03:52:21;;;;;;;7.40;2.60;;;;;;;1.77;82.17;100322.57;106242;1267;74736;-71
2023/03/15 03:54:47;;;;;;;9.40;2.90;;;;;;;1.75;82.68;100325.33;106753;1259;70180;-69
2023/03/15 03:57:14;;;;;;;6.40;2.30;;;;;;;1.73;82.93;100328.61;106570;1262;72736;-70
2023/03/15 03:59:41;;;;;;;9.10;3.00;;;;;;;1.70;83.35;100332.89;106789;1263;61008;-70
2023/03/15 04:02:08;;;;;;;7.70;2.30;;;;;;;1.68;83.70;100329.23;106304;1266;60542;-72
2023/03/15 04:04:35;;;;;;;9.20;2.80;;;;;;;1.64;84.01;100342.28;106497;1261;73524;-70
2023/03/15 04:07:02;;;;;;;7.90;2.90;;;;;;;1.64;84.48;100347.34;106741;1259;71170;-70
2023/03/15 04:09:28;;;;;;;7.30;2.70;;;;;;;1.62;84.78;100349.73;106560;1259;71516;-69
2023/03/15 04:11:55;;;;;;;7.60;3.30;;;;;;;1.59;85.30;100355.02;106490;1262;61379;-70
2023/03/15 04:14:23;;;;;;;6.10;3.00;;;;;;;1.57;85.65;100362.85;106343;1260;61407;-70
2023/03/15 04:16:50;;;;;;;7.00;3.00;;;;;;;1.58;86.10;100370.80;106857;1259;73896;-71
2023/03/15 04:19:17;;;;;;;8.70;3.10;;;;;;;1.59;86.32;100377.17;106777;1260;70915;-70
2023/03/15 04:21:46;;;;;;;5.70;2.90;;;;;;;1.61;86.50;100380.83;106549;1263;72389;-70
2023/03/15 04:24:13;;;;;;;6.90;3.00;;;;;;;1.66;86.92;100377.36;106611;1262;61785;-70
2023/03/15 04:26:40;;;;;;;8.40;3.00;;;;;;;1.69;86.78;100383.73;106606;1259;61501;-70
2023/03/15 04:29:09;;;;;;;5.80;2.60;;;;;;;1.72;87.03;100385.77;106614;1259;74678;-69
2023/03/15 04:31:37;;;;;;;8.20;3.00;;;;;;;1.74;87.14;100391.98;106203;1259;69754;-73
2023/03/15 04:34:04;;;;;;;7.20;2.80;;;;;;;1.78;87.30;100393.56;106333;1263;70775;-69
2023/03/15 04:36:31;;;;;;;7.20;3.50;;;;;;;1.80;87.41;100401.51;106443;1259;61367;-70
2023/03/15 04:39:06;;;;;;;8.60;2.90;;;;;;;1.82;87.46;100395.85;107174;1260;61289;-69
2023/03/15 04:41:33;;;;;;;6.70;3.20;;;;;;;1.84;87.81;100395.38;106583;1266;73527;-69
2023/03/15 04:44:04;;;;;;;8.90;3.20;;;;;;;1.86;87.76;100405.48;106857;1259;71293;-69
2023/03/15 04:46:31;;;;;;;7.10;3.00;;;;;;;1.90;87.61;100402.27;106761;1262;71732;-69
2023/03/15 04:48:59;;;;;;;6.20;2.90;;;;;;;1.90;88.01;100401.02;106684;1259;62784;-70
2023/03/15 04:51:26;;;;;;;9.60;3.50;;;;;;;1.89;88.02;100407.37;106444;1259;61630;-73
2023/03/15 04:53:53;;;;;;;7.70;2.90;;;;;;;1.91;88.38;100407.73;106426;1261;74456;-71
2023/03/15 04:56:20;;;;;;;7.40;3.00;;;;;;;1.90;88.19;100413.70;106886;1262;72055;-69
2023/03/15 04:58:47;;;;;;;6.10;2.70;;;;;;;1.91;88.48;100412.79;106960;1263;72648;-70
2023/03/15 05:01:14;;;;;;;8.00;3.10;;;;;;;1.91;88.61;100419.42;106321;1259;61248;-70
2023/03/15 05:03:41;;;;;;;8.60;3.60;;;;;;;1.94;88.43;100418.65;106544;1260;61346;-68
2023/03/15 05:06:08;;;;;;;8.20;3.00;;;;;;;1.96;88.44;100425.80;106432;1259;73464;-70
2023/03/15 05:08:35;;;;;;;8.30;3.40;;;;;;;1.97;88.30;100427.27;106636;1259;70248;-69
2023/03/15 05:11:03;;;;;;;6.70;3.40;;;;;;;2.00;88.78;100432.61;106305;1263;71448;-69
2023/03/15 05:13:31;;;;;;;7.70;3.40;;;;;;;2.01;88.78;100436.73;106374;1264;61352;-69
2023/03/15 05:15:57;;;;;;;7.00;3.80;;;;;;;2.03;89.00;100442.82;106528;1259;61821;-69
2023/03/15 05:18:25;;;;;;;6.40;3.10;;;;;;;2.02;88.98;100442.36;106360;1262;74740;-70
2023/03/15 05:20:54;;;;;;;6.50;3.00;;;;;;;2.00;89.25;100445.70;106960;1261;71195;-69
2023/03/15 05:23:23;;;;;;;7.70;3.10;;;;;;;2.01;89.44;100453.41;107343;1261;72677;-69
2023/03/15 05:25:54;;;;;;;6.00;3.30;;;;;;;2.01;89.45;100449.77;106232;1262;61274;-70
2023/03/15 05:28:22;;;;;;;7.10;3.00;;;;;;;2.02;89.41;100460.51;106181;1259;61180;-69
2023/03/15 05:30:53;;;;;;;9.30;3.30;;;;;;;2.01;89.57;100463.20;106201;1262;73541;-70
2023/03/15 05:33:21;;;;;;;5.20;3.40;;;;;;;2.02;89.52;100468.02;106316;1265;69864;-72
2023/03/15 05:35:48;;;;;;;9.80;3.20;;;;;;;2.06;89.29;100468.42;106624;1267;71130;-72
2023/03/15 05:38:15;;;;;;;6.80;3.40;;;;;;;2.10;89.24;100475.79;106382;1262;60583;-71
2023/03/15 05:40:46;;;;;;;7.60;3.10;;;;;;;2.12;89.01;100482.75;106505;1261;61339;-70
2023/03/15 05:43:13;;;;;;;7.20;3.40;;;;;;;2.10;89.15;100487.45;106171;1262;74402;-72
2023/03/15 05:45:47;;;;;;;7.80;3.50;;;;;;;2.13;88.94;100489.34;106079;1263;71383;-73
2023/03/15 05:48:15;;;;;;;6.40;3.50;;;;;;;2.18;88.86;100495.00;106235;1262;71488;-72
2023/03/15 05:50:42;;;;;;;7.50;3.30;;;;;;;2.19;88.60;100505.03;106199;1262;61116;-73
2023/03/15 05:53:12;;;;;;;7.50;2.90;;;;;;;2.19;88.29;100508.84;106484;1262;61173;-72
2023/03/15 05:55:39;;;;;;;8.50;3.10;;;;;;;2.19;88.73;100510.61;106471;1262;74742;-74
2023/03/15 05:58:08;;;;;;;6.70;3.00;;;;;;;2.21;88.16;100515.34;106604;1259;70554;-72
2023/03/15 06:00:35;;;;;;;6.40;2.90;;;;;;;2.24;87.90;100523.67;106296;1263;71642;-72
2023/03/15 06:03:02;;;;;;;5.70;2.70;;;;;;;2.23;87.89;100529.27;106465;1262;61328;-71
2023/03/15 06:05:30;;;;;;;5.80;3.30;;;;;;;2.22;87.65;100532.88;106901;1262;61253;-72
2023/03/15 06:07:57;;;;;;;4.50;2.80;;;;;;;2.23;87.31;100540.60;106299;1262;73503;-72
2023/03/15 06:10:23;;;;;;;7.80;3.40;;;;;;;2.26;87.62;100542.88;106488;1262;70143;-72
2023/03/15 06:12:51;;;;;;;7.10;3.30;;;;;;;2.25;87.80;100543.23;106542;1262;72611;-72
2023/03/15 06:15:18;;;;;;;9.60;3.30;;;;;;;2.29;87.68;100549.41;106102;1261;61293;-71
2023/03/15 06:17:45;;;;;;;6.30;3.20;;;;;;;2.32;87.73;100559.31;106158;1262;61337;-74
2023/03/15 06:20:13;;;;;;;8.70;3.50;;;;;;;2.33;87.73;100557.63;106189;1262;75340;-71
2023/03/15 06:22:40;;;;;;;5.80;2.90;;;;;;;2.36;87.55;100566.59;106497;1262;71132;-72
2023/03/15 06:25:08;;;;;;;6.80;3.20;;;;;;;2.35;87.69;100567.05;105967;1262;72564;-72
2023/03/15 06:27:36;;;;;;;6.70;3.00;;;;;;;2.32;87.95;100566.80;106292;1261;61644;-73
2023/03/15 06:30:05;;;;;;;7.60;3.50;;;;;;;2.31;88.12;100568.64;106730;1262;61358;-71
2023/03/15 06:32:32;;;;;;;7.30;3.60;;;;;;;2.27;87.85;100572.10;106286;1263;74600;-71
2023/03/15 06:34:59;;;;;;;7.50;3.80;;;;;;;2.26;88.30;100577.23;106108;1260;71678;-71
2023/03/15 06:37:26;;;;;;;7.30;3.90;;;;;;;2.30;87.83;100581.79;106113;1263;72357;-71
2023/03/15 06:40:08;;;;;;;8.90;3.60;;;;;;;2.33;88.38;100581.20;106283;1267;61369;-72
2023/03/15 06:42:35;;;;;;;7.10;3.60;;;;;;;2.36;88.54;100585.31;107318;1259;61267;-72
2023/03/15 06:45:03;;;;;;;6.60;3.70;;;;;;;2.39;88.46;100592.90;106046;1267;74409;-69
2023/03/15 06:47:30;;;;;;;7.00;3.60;;;;;;;2.40;88.48;100594.43;106746;1262;71058;-72
2023/03/15 06:49:57;;;;;;;7.10;4.10;;;;;;;2.38;88.09;100603.30;106008;1262;71788;-72
2023/03/15 06:52:24;;;;;;;8.60;3.70;;;;;;;2.39;88.41;100610.67;106566;1262;61406;-72
2023/03/15 06:54:53;;;;;;;5.90;3.50;;;;;;;2.39;88.30;100611.05;105973;1262;61829;-72
2023/03/15 06:57:25;;;;;;;7.30;3.80;;;;;;;2.40;88.35;100618.46;106192;1265;73484;-72
2023/03/15 06:59:53;;;;;;;7.10;3.80;;;;;;;2.38;88.45;100626.84;106191;1260;70118;-72
2023/03/15 07:02:20;;;;;;;8.80;3.40;;;;;;;2.41;88.23;100629.07;106632;1265;72722;-72
2023/03/15 07:04:47;;;;;;;7.20;3.80;;;;;;;2.50;88.67;100634.33;106158;1262;61133;-71
2023/03/15 07:07:16;;;;;;;6.60;3.80;;;;;;;2.62;88.63;100637.09;106536;1262;61281;-70
2023/03/15 07:09:44;;;;;;;7.70;3.70;;;;;;;2.71;88.44;100638.70;105975;1262;73667;-73
2023/03/15 07:12:16;;;;;;;7.50;3.90;;;;;;;2.76;88.07;100646.29;106517;1262;71929;-71
2023/03/15 07:14:45;;;;;;;6.70;3.70;;;;;;;2.80;87.60;100643.48;106077;1261;72334;-72
2023/03/15 07:17:12;;;;;;;8.20;4.10;;;;;;;2.84;87.24;100646.72;106187;1262;61544;-71
2023/03/15 07:19:42;;;;;;;9.50;3.90;;;;;;;2.85;87.11;100654.96;106387;1260;61193;-71
2023/03/15 07:22:22;;;;;;;7.80;3.60;;;;;;;2.93;86.69;100659.23;106407;1262;74709;-71
2023/03/15 07:24:50;;;;;;;6.30;3.40;;;;;;;2.99;86.70;100660.13;106324;1262;72486;-71
2023/03/15 07:27:16;;;;;;;7.00;3.60;;;;;;;3.04;86.67;100667.45;106150;1262;72813;-70
2023/03/15 07:29:45;;;;;;;8.30;3.60;;;;;;;3.09;85.74;100669.83;106216;1266;61189;-70
2023/03/15 07:32:12;;;;;;;6.90;3.90;;;;;;;3.09;85.84;100674.54;106622;1262;61833;-70
2023/03/15 07:34:38;;;;;;;10.60;4.20;;;;;;;3.11;85.99;100674.17;106069;1263;73779;-74
2023/03/15 07:37:05;;;;;;;8.60;4.10;;;;;;;3.17;85.73;100682.44;106134;1264;71046;-75
2023/03/15 07:39:32;;;;;;;5.70;3.70;;;;;;;3.23;85.45;100687.64;106212;1262;71148;-71
2023/03/15 07:41:59;;;;;;;6.00;3.30;;;;;;;3.32;85.12;100697.30;106834;1265;61028;-70
2023/03/15 07:44:26;;;;;;;6.00;3.40;;;;;;;3.36;84.91;100694.17;106691;1262;60041;-73
2023/03/15 07:46:54;;;;;;;5.90;3.20;;;;;;;3.38;83.74;100696.95;106217;1261;72371;-70
2023/03/15 07:49:21;;;;;;;6.40;3.10;;;;;;;3.37;83.96;100699.98;106121;1266;70155;-71
2023/03/15 07:51:48;;;;;;;4.60;3.20;;;;;;;3.45;83.80;100706.29;106463;1261;72794;-70
2023/03/15 07:54:15;;;;;;;6.40;3.50;;;;;;;3.48;82.35;100711.68;106366;1260;61378;-71
2023/03/15 07:56:42;;;;;;;5.00;3.00;;;;;;;3.54;82.79;100713.92;105962;1266;61143;-71
2023/03/15 07:59:09;;;;;;;6.00;3.10;;;;;;;3.63;82.55;100721.05;106088;1266;75844;-72
2023/03/15 08:01:37;;;;;;;6.90;3.80;;;;;;;3.68;81.38;100721.69;106796;1265;69993;-71
2023/03/15 08:04:04;;;;;;;7.20;3.40;;;;;;;3.80;81.16;100721.69;106303;1266;71156;-71
2023/03/15 08:06:31;;;;;;;7.10;3.50;;;;;;;3.92;80.29;100726.81;105916;1262;61223;-72
2023/03/15 08:09:04;;;;;;;6.10;3.00;;;;;;;3.97;78.77;100729.36;106014;1262;60957;-74
2023/03/15 08:11:34;;;;;;;6.20;2.80;;;;;;;4.01;78.67;100735.30;106206;1266;73594;-71
2023/03/15 08:14:02;;;;;;;5.70;2.90;;;;;;;4.11;78.29;100724.83;106282;1261;69812;-74
2023/03/15 08:16:29;;;;;;;5.80;2.50;;;;;;;4.27;77.97;100726.15;105918;1262;71258;-72
2023/03/15 08:18:56;;;;;;;6.40;2.90;;;;;;;4.41;76.87;100733.13;106023;1263;61289;-72
2023/03/15 08:21:23;;;;;;;4.70;2.20;;;;;;;4.53;76.37;100733.44;106477;1266;60102;-71
2023/03/15 08:23:50;;;;;;;5.70;2.60;;;;;;;4.60;76.59;100734.08;106282;1261;74712;-70
2023/03/15 08:26:17;;;;;;;5.60;2.60;;;;;;;4.65;75.66;100739.55;105893;1268;71434;-73
2023/03/15 08:28:44;;;;;;;7.20;3.10;;;;;;;4.68;74.70;100745.77;105946;1265;72296;-71
2023/03/15 08:31:12;;;;;;;5.80;2.70;;;;;;;4.60;73.76;100749.46;105937;1262;61275;-71
2023/03/15 08:33:39;;;;;;;6.80;3.50;;;;;;;4.58;74.63;100752.10;106360;1265;61314;-72
2023/03/15 08:36:06;;;;;;;6.10;2.40;;;;;;;4.58;75.03;100757.25;106088;1259;75375;-73
2023/03/15 08:38:33;;;;;;;7.90;2.70;;;;;;;4.58;74.85;100758.31;106129;1265;70930;-72
2023/03/15 08:41:01;;;;;;;5.90;2.60;;;;;;;4.59;75.14;100763.42;106667;1261;71490;-71
2023/03/15 08:43:27;;;;;;;5.50;2.50;;;;;;;4.59;75.19;100764.27;106114;1265;61653;-71
2023/03/15 08:45:54;;;;;;;6.40;2.80;;;;;;;4.60;75.09;100765.77;106418;1260;61166;-69
2023/03/15 08:48:31;;;;;;;6.00;2.80;;;;;;;4.56;74.60;100775.80;105359;1265;757130;-73
2023/03/15 08:51:04;;;;;;;5.80;2.90;;;;;;;4.62;75.72;100772.65;106001;1265;68921;-72
2023/03/15 08:53:32;;;;;;;5.50;3.10;;;;;;;4.74;75.76;100777.35;106388;1261;72735;-71
2023/03/15 08:55:59;;;;;;;5.90;3.30;;;;;;;4.81;74.43;100790.04;106314;1262;61282;-74
2023/03/15 08:58:25;;;;;;;6.20;3.10;;;;;;;4.80;73.60;100792.06;106196;1263;61768;-72
2023/03/15 09:00:52;;;;;;;5.60;2.80;;;;;;;4.85;73.31;100794.91;106099;1264;75329;-73
2023/03/15 09:03:21;;;;;;;8.70;4.50;;;;;;;4.99;73.29;100798.43;106420;1260;71242;-72
2023/03/15 09:05:48;;;;;;;7.20;3.60;;;;;;;5.08;72.13;100800.67;106362;1262;71474;-73
2023/03/15 09:08:19;;;;;;;7.20;2.80;;;;;;;5.16;71.92;100803.45;106289;1268;61748;-73
2023/03/15 09:10:46;;;;;;;7.20;2.60;;;;;;;5.29;72.08;100804.52;105945;1263;61245;-73
2023/03/15 09:13:13;;;;;;;6.20;2.50;;;;;;;5.49;72.61;100806.39;106118;1262;74818;-72
2023/03/15 09:15:40;;;;;;;7.10;2.70;;;;;;;5.72;71.73;100808.02;106372;1262;70411;-72
2023/03/15 09:18:07;;;;;;;5.80;2.60;;;;;;;5.95;71.15;100809.10;106429;1265;71474;-73
2023/03/15 09:20:34;;;;;;;8.40;2.70;;;;;;;6.11;70.43;100812.41;105979;1268;61179;-74
2023/03/15 09:23:01;;;;;;;6.80;2.50;;;;;;;6.15;68.57;100823.73;106049;1263;61280;-73
2023/03/15 09:25:28;;;;;;;9.80;3.10;;;;;;;6.00;68.51;100821.16;106619;1262;74584;-72
2023/03/15 09:27:55;;;;;;;8.80;3.20;;;;;;;5.97;67.94;100825.58;106102;1265;70052;-73
2023/03/15 09:30:22;;;;;;;9.70;2.80;;;;;;;5.97;68.34;100828.92;105980;1262;72472;-73
2023/03/15 09:32:50;;;;;;;6.50;2.00;;;;;;;5.97;67.66;100827.84;106048;1265;61268;-72
2023/03/15 09:35:19;;;;;;;6.70;2.90;;;;;;;5.96;68.25;100831.65;106557;1267;61134;-71
2023/03/15 09:37:46;;;;;;;15.00;4.70;;;;;;;5.86;67.23;100829.52;106304;1262;73454;-73
2023/03/15 09:40:29;;;;;;;8.00;2.10;;;;;;;5.72;67.93;100840.31;106102;1266;69744;-72
2023/03/15 09:43:02;;;;;;;7.50;2.30;;;;;;;5.58;68.94;100843.52;106195;1265;71564;-72
2023/03/15 09:45:41;;;;;;;5.90;1.80;;;;;;;5.40;69.03;100858.13;106414;1261;61839;-72
2023/03/15 09:48:18;;;;;;;8.70;2.20;;;;;;;5.28;69.01;100848.46;105984;1263;61375;-76
2023/03/15 09:50:47;;;;;;;8.90;2.10;;;;;;;5.33;69.03;100852.20;106199;1265;74747;-72
2023/03/15 09:53:36;;;;;;;10.20;2.20;;;;;;;5.58;68.55;100853.00;106696;1267;71212;-72
2023/03/15 09:56:02;;;;;;;9.20;2.50;;;;;;;5.99;67.84;100849.65;105970;1264;74952;-74
2023/03/15 09:58:34;;;;;;;7.90;1.80;;;;;;;6.30;66.51;100848.56;106150;1261;61360;-71
2023/03/15 10:01:07;;;;;;;6.60;1.80;;;;;;;6.43;63.57;100860.11;105952;1263;61262;-73
2023/03/15 10:03:48;;;;;;;8.30;2.60;;;;;;;6.35;63.01;100861.20;106183;1262;73547;-74
2023/03/15 10:06:33;;;;;;;16.70;5.50;;;;;;;6.26;62.21;100852.74;106307;1263;71299;-72
2023/03/15 10:09:12;;;;;;;6.10;1.60;;;;;;;6.22;62.01;100855.90;106596;1261;72900;-71
2023/03/15 10:11:57;;;;;;;7.10;1.50;;;;;;;6.35;61.13;100851.88;106320;1259;61879;-72
2023/03/15 10:14:45;;;;;;;5.90;1.50;;;;;;;6.61;62.28;100848.75;106014;1265;61261;-73
2023/03/15 10:17:16;;;;;;;6.20;1.60;;;;;;;6.83;61.96;100849.52;106192;1262;73728;-71
2023/03/15 10:19:49;;;;;;;7.50;1.50;;;;;;;6.91;60.45;100854.15;106267;1263;71210;-72
2023/03/15 10:22:27;;;;;;;7.60;1.50;;;;;;;6.81;56.85;100858.10;106293;1265;72953;-72
2023/03/15 10:25:15;;;;;;;6.80;1.30;;;;;;;6.92;58.00;100856.25;105983;1264;61917;-73
2023/03/15 10:27:51;;;;;;;5.20;1.20;;;;;;;7.14;56.31;100851.42;106355;1265;61230;-72
2023/03/15 10:30:20;;;;;;;4.50;0.80;;;;;;;7.13;51.15;100852.80;106130;1261;75979;-72
2023/03/15 10:33:01;;;;;;;2.70;0.70;;;;;;;7.11;50.77;100849.67;108705;1261;71102;-71
2023/03/15 10:35:28;;;;;;;4.90;1.10;;;;;;;7.17;50.28;100850.85;108569;1262;72681;-71
2023/03/15 10:37:55;;;;;;;5.10;1.00;;;;;;;7.23;50.12;100854.77;108730;1264;59724;-71
2023/03/15 10:40:58;;;;;;;3.30;0.90;;;;;;;7.28;49.27;100862.05;108669;1260;59220;-71
2023/03/15 10:43:33;;;;;;;4.70;1.00;;;;;;;7.29;49.72;100854.70;108234;1269;74527;-72
2023/03/15 10:46:07;;;;;;;3.00;0.70;;;;;;;7.27;48.44;100857.05;108401;1267;71586;-72
2023/03/15 10:48:36;;;;;;;3.30;0.80;;;;;;;7.22;49.59;100860.49;108566;1260;72008;-72
2023/03/15 10:51:13;;;;;;;4.30;0.90;;;;;;;7.37;49.87;100859.27;108693;1263;58903;-72
2023/03/15 10:53:59;;;;;;;4.40;1.40;;;;;;;7.71;51.40;100863.51;108787;1261;60094;-72
2023/03/15 10:56:30;;;;;;;4.10;0.90;;;;;;;7.96;52.17;100869.98;108541;1260;72169;-72
2023/03/15 10:58:58;;;;;;;4.30;1.00;;;;;;;8.03;50.38;100868.24;108638;1263;70110;-72
2023/03/15 11:01:38;;;;;;;3.20;0.90;;;;;;;7.99;49.07;100868.09;108638;1260;72052;-71
2023/03/15 11:04:07;;;;;;;3.90;1.10;;;;;;;7.81;47.46;100873.00;108704;1265;59302;-71
2023/03/15 11:06:44;;;;;;;3.70;0.90;;;;;;;7.69;46.21;100874.56;108764;1261;60080;-71
2023/03/15 11:09:17;;;;;;;5.10;1.00;;;;;;;7.53;45.45;100879.15;108732;1263;72291;-71
2023/03/15 11:12:06;;;;;;;5.70;1.20;;;;;;;7.50;45.43;100874.67;108740;1260;71351;-71
2023/03/15 11:14:46;;;;;;;4.20;0.80;;;;;;;7.63;44.31;100880.80;108578;1263;71227;-71
2023/03/15 11:17:21;;;;;;;6.50;1.00;;;;;;;7.54;44.48;100881.73;108722;1261;59024;-71
2023/03/15 11:19:58;;;;;;;5.20;1.40;;;;;;;7.60;45.81;100878.29;108734;1261;60084;-71
2023/03/15 11:25:33;;;;;;;3.90;1.00;;;;;;;8.02;45.13;100884.16;103524;1289;599606;-72
2023/03/15 11:28:00;;;;;;;8.20;1.40;;;;;;;8.06;46.65;100880.98;106118;1266;59338;-74
2023/03/15 11:30:30;;;;;;;5.50;1.10;;;;;;;8.14;46.31;100887.22;105574;1272;59325;-71
2023/03/15 11:33:05;;;;;;;6.70;1.70;;;;;;;8.11;46.30;100881.34;106076;1267;71123;-73
2023/03/15 11:35:37;;;;;;;4.10;1.10;;;;;;;8.04;46.59;100883.78;105946;1266;70132;-72
2023/03/15 11:38:13;;;;;;;8.80;1.40;;;;;;;7.85;47.81;100888.65;106311;1266;676606;-72